Time;durP1;ratioP1;P1;durP2;ratioP2;P2;SDS_P1;SDS_P2;PMS_P1;PMS_P2;Temp;Humidity;BMP_temperature;BMP_pressure;BME280_temperature;BME280_humidity;BME280_pressure;Samples;Min_cycle;Max_cycle;Signal;HPM_P1;HPM_P2
2023/04/05 00:01:55;;;;;;;7.78;2.67;;;;;;;;;;4985615;28;20058;-70
2023/04/05 00:04:23;;;;;;;6.75;2.75;;;;;;;;;;4995475;28;20054;-70
2023/04/05 00:06:51;;;;;;;6.60;2.90;;;;;;;;;;4968061;28;20053;-70
2023/04/05 00:09:18;;;;;;;9.03;3.17;;;;;;;;;;5002289;28;20054;-70
2023/04/05 00:11:45;;;;;;;6.20;2.55;;;;;;;;;;4991579;28;20156;-71
2023/04/05 00:14:13;;;;;;;6.40;2.65;;;;;;;;;;4989959;28;20117;-70
2023/04/05 00:16:40;;;;;;;5.88;2.70;;;;;;;;;;4968883;28;20073;-70
2023/04/05 00:19:07;;;;;;;7.43;3.13;;;;;;;;;;4990607;28;20050;-71
2023/04/05 00:21:34;;;;;;;6.32;2.83;;;;;;;;;;4975903;28;20050;-69
2023/04/05 00:24:01;;;;;;;5.93;2.92;;;;;;;;;;4976368;28;20174;-71
2023/04/05 00:26:28;;;;;;;8.02;2.70;;;;;;;;;;4968881;28;20058;-71
2023/04/05 00:28:55;;;;;;;8.73;3.20;;;;;;;;;;4969465;28;20085;-69
2023/04/05 00:31:23;;;;;;;8.27;2.95;;;;;;;;;;4989947;28;20056;-70
2023/04/05 00:33:52;;;;;;;6.60;2.67;;;;;;;;;;4986638;28;20138;-69
2023/04/05 00:36:19;;;;;;;7.53;2.70;;;;;;;;;;4975716;28;20077;-70
2023/04/05 00:38:46;;;;;;;7.53;3.00;;;;;;;;;;4988441;28;20053;-70
2023/04/05 00:41:13;;;;;;;8.30;2.90;;;;;;;;;;4981098;28;20177;-70
2023/04/05 00:43:40;;;;;;;6.47;2.95;;;;;;;;;;4965790;28;20058;-72
2023/04/05 00:46:07;;;;;;;6.13;2.47;;;;;;;;;;4968761;28;20089;-70
2023/04/05 00:48:35;;;;;;;9.32;3.15;;;;;;;;;;4969911;28;20058;-71
2023/04/05 00:51:02;;;;;;;6.88;3.00;;;;;;;;;;4976289;28;20054;-71
2023/04/05 00:53:30;;;;;;;8.63;2.70;;;;;;;;;;4987473;28;20065;-70
2023/04/05 00:55:57;;;;;;;10.83;2.90;;;;;;;;;;5004690;28;20066;-71
2023/04/05 00:58:24;;;;;;;7.28;2.95;;;;;;;;;;4994130;28;20309;-71
2023/04/05 01:00:58;;;;;;;8.50;2.72;;;;;;;;;;4988812;28;20046;-69
2023/04/05 01:03:26;;;;;;;8.02;3.25;;;;;;;;;;4978926;28;20120;-70
2023/04/05 01:05:55;;;;;;;8.52;3.00;;;;;;;;;;4988831;28;20058;-70
2023/04/05 01:08:29;;;;;;;8.68;2.90;;;;;;;;;;4984463;28;20061;-70
2023/04/05 01:10:57;;;;;;;7.35;2.75;;;;;;;;;;4990680;28;20285;-71
2023/04/05 01:13:25;;;;;;;5.35;2.50;;;;;;;;;;4993554;28;20058;-70
2023/04/05 01:15:52;;;;;;;6.57;3.00;;;;;;;;;;4995881;28;20168;-70
2023/04/05 01:18:20;;;;;;;7.05;2.65;;;;;;;;;;4993861;28;20050;-70
2023/04/05 01:20:51;;;;;;;6.00;2.45;;;;;;;;;;5007991;28;20370;-70
2023/04/05 01:23:29;;;;;;;7.38;2.47;;;;;;;;;;4979908;28;20062;-71
2023/04/05 01:26:29;;;;;;;5.80;2.67;;;;;;;;;;4975401;28;20070;-69
2023/04/05 01:28:59;;;;;;;5.38;2.55;;;;;;;;;;4977058;28;20058;-70
2023/04/05 01:31:30;;;;;;;7.22;2.67;;;;;;;;;;4977949;28;20058;-70
2023/04/05 01:33:59;;;;;;;7.78;2.60;;;;;;;;;;4986890;28;20232;-71
2023/04/05 01:36:31;;;;;;;6.95;2.45;;;;;;;;;;4993871;28;20065;-71
2023/04/05 01:38:59;;;;;;;8.60;2.67;;;;;;;;;;4977798;28;20058;-70
2023/04/05 01:41:26;;;;;;;6.68;2.80;;;;;;;;;;4980179;28;20050;-71
2023/04/05 01:43:52;;;;;;;7.82;2.53;;;;;;;;;;4974933;28;20061;-71
2023/04/05 01:46:19;;;;;;;8.07;2.63;;;;;;;;;;4987944;28;20065;-70
2023/04/05 01:48:47;;;;;;;6.25;2.50;;;;;;;;;;4978672;28;20242;-70
2023/04/05 01:51:14;;;;;;;7.00;2.67;;;;;;;;;;4996920;28;20057;-70
2023/04/05 01:53:41;;;;;;;6.03;2.38;;;;;;;;;;4995922;28;20065;-70
2023/04/05 01:56:08;;;;;;;7.53;2.53;;;;;;;;;;4994895;28;20068;-71
2023/04/05 01:58:34;;;;;;;5.85;2.58;;;;;;;;;;4980374;28;20056;-71
2023/04/05 02:01:01;;;;;;;7.13;3.00;;;;;;;;;;4989104;28;20054;-70
2023/04/05 02:03:27;;;;;;;5.97;2.67;;;;;;;;;;4993159;28;20061;-70
2023/04/05 02:05:56;;;;;;;6.65;2.50;;;;;;;;;;4930634;28;20053;-71
2023/04/05 02:08:22;;;;;;;6.53;2.63;;;;;;;;;;4983046;28;20094;-70
2023/04/05 02:10:49;;;;;;;7.53;3.13;;;;;;;;;;4996986;28;20060;-70
2023/04/05 02:13:16;;;;;;;6.25;2.60;;;;;;;;;;4967927;28;20065;-71
2023/04/05 02:15:47;;;;;;;14.93;2.90;;;;;;;;;;4991301;28;20057;-70
2023/04/05 02:18:14;;;;;;;6.00;2.50;;;;;;;;;;4991445;28;20058;-70
2023/04/05 02:20:41;;;;;;;7.03;2.78;;;;;;;;;;4969927;28;20157;-71
2023/04/05 02:23:09;;;;;;;6.90;2.53;;;;;;;;;;4962985;28;20124;-70
2023/04/05 02:25:36;;;;;;;8.68;2.72;;;;;;;;;;4984928;28;20309;-69
2023/04/05 02:28:02;;;;;;;7.30;2.92;;;;;;;;;;5001350;28;20057;-69
2023/04/05 02:30:30;;;;;;;6.75;2.80;;;;;;;;;;4981595;28;20061;-70
2023/04/05 02:32:57;;;;;;;6.90;2.85;;;;;;;;;;4994660;28;20665;-69
2023/04/05 02:35:23;;;;;;;5.63;2.40;;;;;;;;;;4972931;28;20046;-71
2023/04/05 02:37:50;;;;;;;6.75;2.75;;;;;;;;;;4989132;28;20054;-70
2023/04/05 02:40:20;;;;;;;8.30;2.90;;;;;;;;;;4979430;28;20058;-70
2023/04/05 02:42:47;;;;;;;10.50;3.05;;;;;;;;;;4977765;28;20261;-70
2023/04/05 02:45:13;;;;;;;7.97;3.00;;;;;;;;;;4965659;28;20072;-70
2023/04/05 02:47:40;;;;;;;6.15;2.60;;;;;;;;;;4978000;28;20057;-70
2023/04/05 02:50:07;;;;;;;9.07;2.75;;;;;;;;;;4973747;28;20069;-70
2023/04/05 02:52:36;;;;;;;7.68;2.75;;;;;;;;;;4977005;28;20058;-70
2023/04/05 02:55:03;;;;;;;7.03;2.55;;;;;;;;;;4973262;28;20150;-69
2023/04/05 02:57:31;;;;;;;7.25;2.85;;;;;;;;;;4977871;28;20168;-69
2023/04/05 02:59:58;;;;;;;9.30;3.20;;;;;;;;;;5012968;28;20058;-71
2023/04/05 03:02:24;;;;;;;6.70;2.58;;;;;;;;;;5007026;28;20478;-71
2023/04/05 03:04:52;;;;;;;9.27;2.88;;;;;;;;;;4974371;28;20061;-70
2023/04/05 03:07:18;;;;;;;7.07;2.65;;;;;;;;;;4955831;28;20453;-69
2023/04/05 03:09:46;;;;;;;6.05;2.15;;;;;;;;;;4977364;28;20061;-69
2023/04/05 03:12:13;;;;;;;8.45;2.88;;;;;;;;;;5006400;28;20049;-69
2023/04/05 03:14:41;;;;;;;5.95;2.45;;;;;;;;;;5005390;28;20486;-69
2023/04/05 03:17:08;;;;;;;6.40;2.72;;;;;;;;;;5002338;28;20058;-70
2023/04/05 03:19:35;;;;;;;8.95;2.70;;;;;;;;;;4971350;28;20125;-69
2023/04/05 03:22:01;;;;;;;7.15;2.40;;;;;;;;;;4974324;28;20117;-70
2023/04/05 03:24:28;;;;;;;6.55;2.63;;;;;;;;;;4973297;28;20068;-69
2023/04/05 03:26:55;;;;;;;5.82;2.50;;;;;;;;;;4971687;28;20065;-70
2023/04/05 03:29:22;;;;;;;8.48;2.60;;;;;;;;;;4968259;28;20062;-70
2023/04/05 03:31:50;;;;;;;5.20;2.20;;;;;;;;;;4974696;28;20521;-70
2023/04/05 03:34:17;;;;;;;6.75;2.80;;;;;;;;;;4986259;28;20144;-70
2023/04/05 03:36:46;;;;;;;7.28;2.70;;;;;;;;;;4986269;28;20082;-70
2023/04/05 03:39:13;;;;;;;7.30;2.75;;;;;;;;;;4972503;28;20058;-69
2023/04/05 03:41:40;;;;;;;6.65;2.78;;;;;;;;;;5014525;28;20053;-69
2023/04/05 03:44:07;;;;;;;8.65;2.38;;;;;;;;;;5003077;28;20070;-69
2023/04/05 03:46:34;;;;;;;5.53;2.60;;;;;;;;;;4968049;28;20050;-70
2023/04/05 03:49:02;;;;;;;7.05;2.83;;;;;;;;;;4971588;28;20129;-70
2023/04/05 03:51:30;;;;;;;6.93;2.55;;;;;;;;;;4969810;28;20146;-70
2023/04/05 03:53:56;;;;;;;4.90;2.25;;;;;;;;;;4973633;28;20046;-68
2023/04/05 03:56:24;;;;;;;5.68;2.28;;;;;;;;;;5004061;28;20076;-70
2023/04/05 03:58:52;;;;;;;6.28;2.78;;;;;;;;;;4984514;28;20060;-70
2023/04/05 04:01:19;;;;;;;6.00;2.60;;;;;;;;;;4990839;28;20064;-68
2023/04/05 04:03:46;;;;;;;8.35;2.97;;;;;;;;;;5003183;28;20144;-69
2023/04/05 04:06:14;;;;;;;6.13;2.63;;;;;;;;;;4979114;28;20146;-71
2023/04/05 04:08:41;;;;;;;5.28;2.40;;;;;;;;;;4980283;28;20119;-70
2023/04/05 04:11:08;;;;;;;6.85;2.90;;;;;;;;;;4997755;28;20065;-70
2023/04/05 04:13:34;;;;;;;7.53;2.75;;;;;;;;;;4972793;28;20050;-69
2023/04/05 04:16:01;;;;;;;6.72;2.40;;;;;;;;;;4992912;28;20065;-70
2023/04/05 04:18:27;;;;;;;8.00;2.50;;;;;;;;;;4992490;28;20058;-69
2023/04/05 04:20:55;;;;;;;7.80;2.83;;;;;;;;;;4978266;28;20054;-70
2023/04/05 04:23:23;;;;;;;6.63;2.47;;;;;;;;;;4973041;28;20082;-69
2023/04/05 04:25:53;;;;;;;6.40;2.60;;;;;;;;;;4998471;28;20057;-69
2023/04/05 04:28:23;;;;;;;6.70;2.55;;;;;;;;;;4999751;28;20062;-69
2023/04/05 04:30:50;;;;;;;6.28;2.65;;;;;;;;;;4979132;28;20061;-69
2023/04/05 04:33:18;;;;;;;7.38;2.70;;;;;;;;;;4982225;28;20057;-69
2023/04/05 04:35:45;;;;;;;6.07;2.60;;;;;;;;;;4976565;28;20062;-70
2023/04/05 04:38:19;;;;;;;6.88;2.30;;;;;;;;;;4998526;28;20057;-69
2023/04/05 04:40:49;;;;;;;7.07;2.83;;;;;;;;;;4983929;28;20058;-68
2023/04/05 04:43:17;;;;;;;6.38;2.72;;;;;;;;;;4973051;28;20061;-69
2023/04/05 04:45:46;;;;;;;6.63;2.72;;;;;;;;;;4978038;28;20270;-69
2023/04/05 04:48:15;;;;;;;6.97;2.83;;;;;;;;;;4978842;28;20065;-69
2023/04/05 04:50:42;;;;;;;6.78;2.65;;;;;;;;;;4977083;28;20058;-69
2023/04/05 04:53:11;;;;;;;7.00;3.30;;;;;;;;;;4969606;28;20078;-70
2023/04/05 04:55:37;;;;;;;6.93;2.70;;;;;;;;;;4955963;28;20308;-69
2023/04/05 04:58:09;;;;;;;6.72;2.58;;;;;;;;;;4974486;28;20058;-72
2023/04/05 05:00:35;;;;;;;7.88;2.60;;;;;;;;;;4973734;28;20168;-69
2023/04/05 05:03:05;;;;;;;7.60;3.00;;;;;;;;;;4995612;28;20057;-70
2023/04/05 05:05:34;;;;;;;7.07;2.70;;;;;;;;;;4961769;28;20050;-70
2023/04/05 05:08:01;;;;;;;8.40;3.08;;;;;;;;;;4982762;28;20058;-70
2023/04/05 05:10:27;;;;;;;7.55;2.85;;;;;;;;;;4984623;28;20091;-71
2023/04/05 05:12:54;;;;;;;8.15;3.00;;;;;;;;;;4997831;28;20053;-70
2023/04/05 05:15:26;;;;;;;6.30;2.55;;;;;;;;;;4988646;28;20057;-70
2023/04/05 05:17:55;;;;;;;7.10;3.10;;;;;;;;;;4985170;28;20213;-71
2023/04/05 05:20:22;;;;;;;6.10;2.45;;;;;;;;;;4981534;28;20069;-69
2023/04/05 05:22:52;;;;;;;7.43;2.97;;;;;;;;;;4980847;28;20053;-70
2023/04/05 05:25:20;;;;;;;6.35;2.65;;;;;;;;;;4968924;28;20082;-69
2023/04/05 05:27:48;;;;;;;6.85;2.83;;;;;;;;;;4990776;28;20054;-70
2023/04/05 05:30:15;;;;;;;8.13;2.80;;;;;;;;;;4981078;28;20072;-68
2023/04/05 05:32:44;;;;;;;7.15;2.88;;;;;;;;;;5010751;28;20068;-68
2023/04/05 05:35:12;;;;;;;9.77;3.35;;;;;;;;;;4955579;28;20085;-70
2023/04/05 05:37:42;;;;;;;7.05;2.88;;;;;;;;;;4983555;28;20057;-69
2023/04/05 05:40:08;;;;;;;7.35;2.78;;;;;;;;;;4998774;28;20060;-69
2023/04/05 05:42:41;;;;;;;6.22;2.58;;;;;;;;;;4986481;28;20065;-69
2023/04/05 05:45:14;;;;;;;7.05;2.80;;;;;;;;;;4983675;28;20140;-68
2023/04/05 05:47:41;;;;;;;6.80;2.78;;;;;;;;;;4986675;28;20302;-69
2023/04/05 05:50:10;;;;;;;6.35;2.75;;;;;;;;;;4981435;28;20053;-69
2023/04/05 05:52:36;;;;;;;8.60;3.33;;;;;;;;;;4979907;28;20056;-69
2023/04/05 05:55:03;;;;;;;12.60;3.38;;;;;;;;;;4996071;28;20062;-70
2023/04/05 05:57:30;;;;;;;8.60;3.03;;;;;;;;;;4983443;28;20057;-69
2023/04/05 05:59:57;;;;;;;7.50;3.33;;;;;;;;;;4969854;28;20053;-69
2023/04/05 06:02:26;;;;;;;8.95;3.50;;;;;;;;;;4975647;28;20138;-69
2023/04/05 06:04:56;;;;;;;9.52;2.85;;;;;;;;;;4987772;28;20077;-69
2023/04/05 06:07:25;;;;;;;9.85;3.53;;;;;;;;;;4962532;28;20065;-68
2023/04/05 06:09:53;;;;;;;8.57;3.50;;;;;;;;;;4990151;28;20062;-69
2023/04/05 06:12:21;;;;;;;7.95;3.40;;;;;;;;;;4979240;28;20128;-69
2023/04/05 06:14:47;;;;;;;7.68;3.15;;;;;;;;;;4975245;28;20049;-69
2023/04/05 06:17:14;;;;;;;8.60;3.50;;;;;;;;;;4992919;28;20053;-69
2023/04/05 06:19:46;;;;;;;8.95;3.28;;;;;;;;;;4992504;28;20139;-70
2023/04/05 06:22:13;;;;;;;8.70;3.47;;;;;;;;;;4998078;28;20074;-69
2023/04/05 06:24:41;;;;;;;7.38;3.05;;;;;;;;;;4981912;28;20057;-69
2023/04/05 06:27:10;;;;;;;8.75;3.28;;;;;;;;;;4994455;28;20062;-68
2023/04/05 06:29:39;;;;;;;9.00;3.58;;;;;;;;;;4988406;28;21126;-70
2023/04/05 06:32:06;;;;;;;9.07;2.95;;;;;;;;;;4968073;28;20051;-70
2023/04/05 06:34:33;;;;;;;8.10;2.97;;;;;;;;;;4959739;28;20057;-69
2023/04/05 06:37:00;;;;;;;10.02;3.33;;;;;;;;;;4978018;28;20058;-69
2023/04/05 06:39:26;;;;;;;10.60;3.17;;;;;;;;;;4966363;28;20264;-69
2023/04/05 06:41:56;;;;;;;9.52;3.38;;;;;;;;;;4993953;28;20073;-69
2023/04/05 06:44:25;;;;;;;9.50;3.70;;;;;;;;;;4968484;28;20070;-69
2023/04/05 06:46:54;;;;;;;11.77;4.00;;;;;;;;;;4988974;28;20100;-69
2023/04/05 06:49:20;;;;;;;11.20;3.88;;;;;;;;;;4971836;28;20062;-71
2023/04/05 06:52:05;;;;;;;10.82;3.92;;;;;;;;;;4988459;28;20054;-69
2023/04/05 06:54:32;;;;;;;6.78;2.80;;;;;;;;;;4983791;28;20053;-69
2023/04/05 06:57:01;;;;;;;8.88;3.50;;;;;;;;;;4973298;28;20054;-70
2023/04/05 06:59:28;;;;;;;7.95;3.30;;;;;;;;;;4980211;28;20057;-69
2023/04/05 07:01:54;;;;;;;8.55;3.38;;;;;;;;;;4963425;28;20475;-69
2023/04/05 07:04:25;;;;;;;8.93;3.65;;;;;;;;;;4952106;28;20062;-70
2023/04/05 07:06:55;;;;;;;7.65;3.28;;;;;;;;;;4977645;28;20135;-70
2023/04/05 07:09:29;;;;;;;7.63;3.08;;;;;;;;;;4981315;28;20064;-69
2023/04/05 07:11:56;;;;;;;8.50;3.20;;;;;;;;;;4990100;28;20138;-70
2023/04/05 07:14:29;;;;;;;8.90;3.30;;;;;;;;;;4975811;28;20069;-69
2023/04/05 07:16:55;;;;;;;7.68;3.33;;;;;;;;;;4984655;28;20060;-69
2023/04/05 07:19:23;;;;;;;8.77;3.55;;;;;;;;;;4987295;28;20060;-69
2023/04/05 07:21:50;;;;;;;9.60;4.15;;;;;;;;;;4993838;28;20068;-69
2023/04/05 07:24:20;;;;;;;8.18;3.13;;;;;;;;;;4982111;28;20071;-69
2023/04/05 07:26:49;;;;;;;9.93;3.85;;;;;;;;;;4993177;28;20064;-69
2023/04/05 07:29:16;;;;;;;9.43;3.45;;;;;;;;;;4986884;28;20054;-68
2023/04/05 07:31:47;;;;;;;7.40;3.47;;;;;;;;;;4993851;28;20053;-69
2023/04/05 07:34:13;;;;;;;10.57;3.33;;;;;;;;;;4996886;28;20058;-70
2023/04/05 07:36:40;;;;;;;12.10;3.90;;;;;;;;;;4976160;28;20049;-69
2023/04/05 07:39:07;;;;;;;9.73;3.47;;;;;;;;;;4992280;28;20107;-70
2023/04/05 07:41:36;;;;;;;10.20;3.75;;;;;;;;;;4981769;28;20397;-70
2023/04/05 07:44:06;;;;;;;10.10;3.88;;;;;;;;;;4991130;28;20053;-70
2023/04/05 07:46:35;;;;;;;9.07;3.30;;;;;;;;;;4987947;28;20155;-69
2023/04/05 07:49:05;;;;;;;8.07;3.05;;;;;;;;;;4987416;28;20054;-70
2023/04/05 07:51:35;;;;;;;10.98;3.80;;;;;;;;;;4991548;28;20239;-70
2023/04/05 07:54:04;;;;;;;8.73;3.35;;;;;;;;;;4973000;28;20053;-69
2023/04/05 07:56:31;;;;;;;9.82;2.70;;;;;;;;;;4995452;28;20061;-69
2023/04/05 07:58:57;;;;;;;7.43;3.17;;;;;;;;;;4992280;28;20053;-69
2023/04/05 08:01:26;;;;;;;7.90;3.45;;;;;;;;;;5010666;28;20077;-68
2023/04/05 08:03:57;;;;;;;8.23;3.33;;;;;;;;;;4989960;28;20077;-69
2023/04/05 08:06:26;;;;;;;7.97;3.43;;;;;;;;;;5002741;28;20564;-69
2023/04/05 08:08:57;;;;;;;7.07;2.92;;;;;;;;;;4982245;28;20054;-69
2023/04/05 08:11:24;;;;;;;9.18;3.35;;;;;;;;;;4970920;28;20090;-68
2023/04/05 08:13:54;;;;;;;11.10;3.22;;;;;;;;;;4962070;28;20118;-70
2023/04/05 08:16:21;;;;;;;11.98;3.97;;;;;;;;;;4974982;28;20074;-70
2023/04/05 08:18:48;;;;;;;9.23;3.63;;;;;;;;;;4973583;28;20413;-70
2023/04/05 08:21:14;;;;;;;8.07;3.58;;;;;;;;;;4953717;28;20165;-69
2023/04/05 08:23:44;;;;;;;8.93;3.72;;;;;;;;;;4970905;28;20046;-70
2023/04/05 08:26:13;;;;;;;10.77;3.40;;;;;;;;;;4976566;28;20058;-70
2023/04/05 08:28:40;;;;;;;8.30;3.38;;;;;;;;;;4972921;28;20053;-69
2023/04/05 08:31:12;;;;;;;9.98;3.83;;;;;;;;;;4973841;28;20086;-71
2023/04/05 08:33:41;;;;;;;8.93;3.70;;;;;;;;;;4970476;28;20062;-70
2023/04/05 08:36:11;;;;;;;9.50;3.63;;;;;;;;;;4988681;28;20410;-69
2023/04/05 08:38:38;;;;;;;9.30;3.60;;;;;;;;;;4971580;28;20064;-72
2023/04/05 08:41:18;;;;;;;9.95;3.60;;;;;;;;;;4976579;28;20054;-71
2023/04/05 08:43:55;;;;;;;11.80;4.10;;;;;;;;;;4965314;28;20064;-70
2023/04/05 08:46:22;;;;;;;8.30;3.97;;;;;;;;;;4971758;28;20073;-69
2023/04/05 08:48:51;;;;;;;8.23;3.63;;;;;;;;;;4977898;28;20057;-69
2023/04/05 08:51:20;;;;;;;10.73;3.70;;;;;;;;;;4985238;28;20053;-69
2023/04/05 08:53:50;;;;;;;9.95;3.67;;;;;;;;;;4998357;28;20042;-69
2023/04/05 08:56:20;;;;;;;8.15;3.30;;;;;;;;;;4960121;28;20054;-70
2023/04/05 08:58:53;;;;;;;9.52;3.55;;;;;;;;;;4943752;28;20133;-70
2023/04/05 09:01:29;;;;;;;9.18;3.88;;;;;;;;;;4960594;28;20074;-70
2023/04/05 09:03:57;;;;;;;8.73;3.72;;;;;;;;;;4976852;28;20058;-70
2023/04/05 09:06:27;;;;;;;7.35;3.22;;;;;;;;;;4969106;28;20057;-69
2023/04/05 09:08:54;;;;;;;8.93;3.72;;;;;;;;;;4988573;28;20062;-68
2023/04/05 09:11:23;;;;;;;9.57;4.00;;;;;;;;;;4993915;28;20095;-69
2023/04/05 09:13:58;;;;;;;10.05;3.90;;;;;;;;;;4996515;28;20327;-69
2023/04/05 09:16:25;;;;;;;8.82;3.20;;;;;;;;;;4959081;28;20058;-70
2023/04/05 09:18:55;;;;;;;8.38;3.25;;;;;;;;;;4962476;28;20054;-70
2023/04/05 09:21:23;;;;;;;8.73;3.85;;;;;;;;;;4970590;28;20405;-69
2023/04/05 09:23:52;;;;;;;8.25;3.25;;;;;;;;;;4987438;28;20119;-69
2023/04/05 09:26:25;;;;;;;9.93;3.80;;;;;;;;;;4983011;28;20058;-68
2023/04/05 09:28:55;;;;;;;8.40;3.67;;;;;;;;;;4978500;28;20054;-70
2023/04/05 09:31:40;;;;;;;6.95;3.38;;;;;;;;;;4955220;28;20050;-70
2023/04/05 09:34:09;;;;;;;8.65;3.92;;;;;;;;;;4974675;28;20058;-70
2023/04/05 09:36:35;;;;;;;;;;;;;;;;;;4973705;28;20065;-69
2023/04/05 09:39:06;;;;;;;6.40;2.92;;;;;;;;;;4998464;28;19925;-70
2023/04/05 09:41:35;;;;;;;11.35;3.80;;;;;;;;;;4989438;28;20065;-70
2023/04/05 09:44:04;;;;;;;9.43;3.95;;;;;;;;;;5010396;28;20053;-69
2023/04/05 09:46:32;;;;;;;9.70;3.65;;;;;;;;;;4983373;28;20332;-69
2023/04/05 09:48:59;;;;;;;9.07;3.20;;;;;;;;;;4994762;28;20045;-70
2023/04/05 09:51:32;;;;;;;10.20;4.05;;;;;;;;;;4975621;28;20308;-68
2023/04/05 09:54:01;;;;;;;8.50;3.63;;;;;;;;;;4990041;28;20050;-69
2023/04/05 09:56:27;;;;;;;;;;;;;;;;;;4976655;28;20135;-70
2023/04/05 09:59:01;;;;;;;9.00;3.58;;;;;;;;;;4941519;28;19949;-69
2023/04/05 10:01:28;;;;;;;10.13;4.20;;;;;;;;;;4984855;28;20058;-69
2023/04/05 10:03:57;;;;;;;9.50;4.15;;;;;;;;;;4971755;28;20133;-69
2023/04/05 10:06:23;;;;;;;10.23;3.92;;;;;;;;;;4997264;28;20166;-70
2023/04/05 10:08:50;;;;;;;9.73;4.32;;;;;;;;;;4978178;28;20061;-69
2023/04/05 10:11:17;;;;;;;8.90;4.20;;;;;;;;;;4970224;28;20314;-69
2023/04/05 10:13:45;;;;;;;8.15;3.58;;;;;;;;;;4997343;28;20068;-70
2023/04/05 10:16:14;;;;;;;7.60;3.33;;;;;;;;;;4952226;28;20156;-71
2023/04/05 10:18:40;;;;;;;;;;;;;;;;;;4979413;28;20164;-70
2023/04/05 10:21:10;;;;;;;9.00;3.35;;;;;;;;;;4957319;28;19937;-71
2023/04/05 10:23:42;;;;;;;9.13;3.78;;;;;;;;;;4955115;28;20183;-69
2023/04/05 10:26:13;;;;;;;10.10;4.43;;;;;;;;;;4990089;28;20074;-70
2023/04/05 10:28:44;;;;;;;11.07;4.20;;;;;;;;;;4992362;28;20390;-70
2023/04/05 10:31:13;;;;;;;9.10;3.85;;;;;;;;;;4985674;28;20069;-70
2023/04/05 10:33:46;;;;;;;9.20;3.80;;;;;;;;;;4987973;28;20058;-71
2023/04/05 10:36:16;;;;;;;8.32;3.95;;;;;;;;;;4992164;28;20141;-70
2023/04/05 10:38:48;;;;;;;12.85;4.20;;;;;;;;;;4981140;28;20041;-69
2023/04/05 10:41:17;;;;;;;8.18;3.80;;;;;;;;;;4996964;28;20150;-69
2023/04/05 10:43:47;;;;;;;11.02;4.15;;;;;;;;;;4986454;28;20050;-72
2023/04/05 10:46:24;;;;;;;8.77;3.63;;;;;;;;;;4987624;28;20057;-71
2023/04/05 10:49:08;;;;;;;10.43;3.53;;;;;;;;;;4979024;28;20177;-69
2023/04/05 10:51:39;;;;;;;8.68;3.83;;;;;;;;;;4987681;28;20050;-69
2023/04/05 10:54:10;;;;;;;7.82;3.80;;;;;;;;;;4990912;28;20050;-69
2023/04/05 10:56:38;;;;;;;9.02;4.07;;;;;;;;;;5013959;28;20058;-71
2023/04/05 10:59:05;;;;;;;;;;;;;;;;;;4980647;28;20070;-71
2023/04/05 11:01:40;;;;;;;9.00;3.38;;;;;;;;;;4990487;28;19925;-70
2023/04/05 11:04:15;;;;;;;8.75;3.70;;;;;;;;;;4994728;28;20061;-70
2023/04/05 11:06:48;;;;;;;12.65;3.80;;;;;;;;;;4986676;28;20062;-70
2023/04/05 11:09:17;;;;;;;10.25;4.20;;;;;;;;;;4987535;28;20129;-70
2023/04/05 11:11:45;;;;;;;9.27;4.13;;;;;;;;;;4972550;28;20146;-70
2023/04/05 11:14:20;;;;;;;8.98;3.53;;;;;;;;;;4999352;28;20053;-71
2023/04/05 11:16:47;;;;;;;8.50;3.92;;;;;;;;;;4982206;28;20058;-69
2023/04/05 11:19:17;;;;;;;7.28;3.50;;;;;;;;;;4991850;28;20050;-69
2023/04/05 11:21:44;;;;;;;12.77;4.30;;;;;;;;;;4978317;28;20133;-71
2023/04/05 11:24:14;;;;;;;9.07;4.07;;;;;;;;;;5010053;28;20057;-72
2023/04/05 11:26:53;;;;;;;8.25;3.75;;;;;;;;;;4971411;28;20180;-70
2023/04/05 11:29:29;;;;;;;9.75;4.15;;;;;;;;;;4991697;28;20137;-71
2023/04/05 11:32:00;;;;;;;10.27;3.95;;;;;;;;;;4996927;28;20140;-70
2023/04/05 11:34:28;;;;;;;8.68;4.20;;;;;;;;;;4993603;28;20058;-71
2023/04/05 11:37:00;;;;;;;8.80;4.40;;;;;;;;;;4962796;28;20042;-69
2023/04/05 11:39:29;;;;;;;9.65;3.95;;;;;;;;;;4977034;28;20050;-69
2023/04/05 11:42:00;;;;;;;9.38;4.32;;;;;;;;;;4985230;28;20054;-69
2023/04/05 11:44:26;;;;;;;9.25;4.43;;;;;;;;;;4967703;28;20092;-69
2023/04/05 11:46:54;;;;;;;7.97;3.75;;;;;;;;;;4988861;28;20081;-70
2023/04/05 11:49:22;;;;;;;8.65;4.22;;;;;;;;;;4969303;28;20161;-71
2023/04/05 11:51:52;;;;;;;7.93;3.97;;;;;;;;;;4987178;28;20078;-70
2023/04/05 11:54:28;;;;;;;8.65;4.13;;;;;;;;;;4969000;28;20045;-69
2023/04/05 11:56:55;;;;;;;8.00;3.95;;;;;;;;;;4958999;28;20050;-70
2023/04/05 11:59:28;;;;;;;8.57;4.30;;;;;;;;;;4977329;28;20050;-69
2023/04/05 12:01:59;;;;;;;7.10;3.92;;;;;;;;;;4942710;28;20082;-71
2023/04/05 12:04:25;;;;;;;8.98;3.55;;;;;;;;;;4958643;28;20133;-71
2023/04/05 12:07:09;;;;;;;8.73;4.00;;;;;;;;;;4986920;28;20054;-71
2023/04/05 12:09:51;;;;;;;7.85;3.60;;;;;;;;;;4983880;28;20117;-71
2023/04/05 12:12:19;;;;;;;9.65;4.53;;;;;;;;;;4998406;28;20127;-70
2023/04/05 12:14:46;;;;;;;8.10;3.67;;;;;;;;;;4970939;28;20070;-70
2023/04/05 12:19:53;;;;;;;8.30;4.00;;;;;;;;;;4980383;28;20056;-71
2023/04/05 12:22:22;;;;;;;9.30;4.22;;;;;;;;;;4990643;28;20053;-71
2023/04/05 12:24:49;;;;;;;8.05;3.83;;;;;;;;;;4967961;28;20058;-70
2023/04/05 12:27:20;;;;;;;8.18;4.18;;;;;;;;;;4960707;28;20051;-71
2023/04/05 12:30:02;;;;;;;7.40;3.53;;;;;;;;;;5002578;28;20077;-70
2023/04/05 12:32:36;;;;;;;8.57;3.78;;;;;;;;;;4997226;28;20101;-72
2023/04/05 12:35:10;;;;;;;8.30;3.78;;;;;;;;;;4950952;28;20241;-70
2023/04/05 12:37:40;;;;;;;8.85;3.70;;;;;;;;;;4980172;28;20056;-70
2023/04/05 12:40:10;;;;;;;9.77;3.97;;;;;;;;;;4968073;28;20046;-70
2023/04/05 12:42:45;;;;;;;8.30;3.70;;;;;;;;;;4972488;28;20089;-71
2023/04/05 12:45:13;;;;;;;9.60;3.80;;;;;;;;;;4964134;28;20061;-70
2023/04/05 12:47:55;;;;;;;7.38;3.55;;;;;;;;;;4996783;28;20145;-72
2023/04/05 12:50:34;;;;;;;10.43;4.18;;;;;;;;;;4995913;28;20074;-72
2023/04/05 12:53:09;;;;;;;7.88;3.42;;;;;;;;;;5019592;28;20426;-70
2023/04/05 12:55:42;;;;;;;8.25;3.35;;;;;;;;;;4972682;28;20118;-71
2023/04/05 12:58:16;;;;;;;8.25;3.85;;;;;;;;;;4988778;28;20129;-70
2023/04/05 13:00:47;;;;;;;6.60;3.10;;;;;;;;;;4980585;28;20058;-71
2023/04/05 13:03:25;;;;;;;8.88;3.45;;;;;;;;;;4979868;28;20054;-70
2023/04/05 13:05:58;;;;;;;6.78;3.40;;;;;;;;;;5009464;28;20054;-70
2023/04/05 13:08:26;;;;;;;9.00;3.55;;;;;;;;;;5003633;28;20080;-72
2023/04/05 13:10:53;;;;;;;7.82;3.30;;;;;;;;;;4988461;28;20053;-71
2023/04/05 13:13:20;;;;;;;7.50;3.33;;;;;;;;;;4999153;28;20053;-71
2023/04/05 13:15:47;;;;;;;8.52;3.72;;;;;;;;;;4988033;28;20058;-71
2023/04/05 13:18:18;;;;;;;6.45;3.20;;;;;;;;;;5002104;28;20054;-71
2023/04/05 13:20:48;;;;;;;7.75;3.65;;;;;;;;;;4992073;28;20050;-70
2023/04/05 13:23:15;;;;;;;7.15;3.38;;;;;;;;;;4998894;28;20146;-72
2023/04/05 13:25:45;;;;;;;8.45;3.70;;;;;;;;;;4974957;28;20049;-71
2023/04/05 13:28:20;;;;;;;8.10;3.53;;;;;;;;;;4964060;28;20050;-70
2023/04/05 13:30:56;;;;;;;8.18;3.80;;;;;;;;;;4991390;28;20074;-70
2023/04/05 13:33:27;;;;;;;8.13;3.80;;;;;;;;;;4969937;28;20101;-70
2023/04/05 13:35:58;;;;;;;9.05;3.83;;;;;;;;;;4959269;28;20053;-69
2023/04/05 13:38:27;;;;;;;8.68;3.60;;;;;;;;;;4960906;28;20054;-71
2023/04/05 13:40:54;;;;;;;8.52;3.53;;;;;;;;;;4964929;28;20050;-70
2023/04/05 13:43:20;;;;;;;9.05;3.60;;;;;;;;;;4965557;28;20146;-70
2023/04/05 13:45:47;;;;;;;7.57;4.03;;;;;;;;;;4978486;28;20065;-69
2023/04/05 13:48:21;;;;;;;8.30;3.60;;;;;;;;;;4983222;28;20066;-72
2023/04/05 13:50:51;;;;;;;7.20;3.40;;;;;;;;;;4992493;28;20078;-70
2023/04/05 13:53:19;;;;;;;7.25;3.72;;;;;;;;;;4976041;28;20077;-71
2023/04/05 13:55:46;;;;;;;7.82;3.58;;;;;;;;;;4961532;28;20062;-70
2023/04/05 13:58:15;;;;;;;6.50;3.38;;;;;;;;;;4973810;28;20144;-71
2023/04/05 14:00:42;;;;;;;9.32;3.90;;;;;;;;;;4997389;28;20054;-71
2023/04/05 14:03:09;;;;;;;9.40;3.97;;;;;;;;;;4993939;28;20052;-72
2023/04/05 14:05:38;;;;;;;7.85;3.10;;;;;;;;;;4974632;28;20141;-70
2023/04/05 14:08:05;;;;;;;8.40;3.90;;;;;;;;;;4979138;28;20089;-71
2023/04/05 14:10:33;;;;;;;7.47;3.33;;;;;;;;;;4970145;28;20047;-70
2023/04/05 14:13:00;;;;;;;7.53;3.13;;;;;;;;;;4978831;28;20061;-70
2023/04/05 14:15:28;;;;;;;6.05;3.30;;;;;;;;;;4999813;28;20062;-70
2023/04/05 14:17:58;;;;;;;6.20;3.00;;;;;;;;;;4990112;28;20170;-70
2023/04/05 14:20:24;;;;;;;8.18;3.47;;;;;;;;;;4956974;28;20182;-70
2023/04/05 14:22:53;;;;;;;7.50;3.45;;;;;;;;;;4973212;28;20046;-70
2023/04/05 14:25:20;;;;;;;8.23;4.00;;;;;;;;;;4948586;28;20133;-72
2023/04/05 14:27:52;;;;;;;9.85;3.35;;;;;;;;;;4943732;28;20105;-70
2023/04/05 14:30:19;;;;;;;8.13;3.75;;;;;;;;;;4975592;28;20391;-72
2023/04/05 14:32:46;;;;;;;6.68;3.50;;;;;;;;;;4968400;28;20059;-71
2023/04/05 14:35:13;;;;;;;7.05;3.15;;;;;;;;;;4954144;28;20111;-72
2023/04/05 14:37:41;;;;;;;7.28;3.20;;;;;;;;;;4962407;28;20065;-72
2023/04/05 14:40:09;;;;;;;6.20;3.20;;;;;;;;;;4980424;28;20054;-71
2023/04/05 14:42:38;;;;;;;6.70;3.53;;;;;;;;;;4982625;28;20051;-72
2023/04/05 14:45:10;;;;;;;7.28;3.55;;;;;;;;;;4975098;28;20078;-69
2023/04/05 14:47:37;;;;;;;8.45;3.80;;;;;;;;;;4976171;28;20064;-71
2023/04/05 14:52:44;;;;;;;7.10;3.60;;;;;;;;;;4996749;28;20069;-71
2023/04/05 14:55:14;;;;;;;8.90;3.42;;;;;;;;;;4980802;28;20185;-72
2023/04/05 14:57:41;;;;;;;6.70;3.60;;;;;;;;;;4989943;28;20061;-71
2023/04/05 15:00:16;;;;;;;8.35;3.30;;;;;;;;;;4983215;28;20112;-70